<?xml version="1.0" encoding="UTF-8" standalone="no" ?>
<gpx xmlns="http://www.topografix.com/GPX/1/1" xmlns:xsi="http://www.w3.org/2001/XMLSchema-instance" xsi:schemaLocation="http://www.topografix.com/GPX/1/1 http://www.topografix.com/GPX/1/1/gpx.xsd" version="1.1" creator="VisuGPX - https://www.visugpx.com">
  <metadata>
    <name>Boucle Claude Monet – au départ de Giverny</name>
    <desc><![CDATA[9 Km en sens anti-horaire, au départ du parking Verger, 43 Le Clos Morin, 27620 Giverny.
Vue sur Google Maps ici : [i][b][url]https://maps.app.goo.gl/FGEkVXAWE5shP4it5[/url][/b][/i]]]></desc>
  </metadata>
  <trk>
    <name><![CDATA[2026-09-03 09:00:27]]></name>
    <desc><![CDATA[<p>Type: Indéfini<br/>Heure de départ: 09:00 3 sept. 2026<br/>Heure d'arrivée: 14:10 3 sept. 2026<br/>Distance: 8,7 km (05:09)<br/>Temps déplacement: 02:31<br/>Vitesse moyenne: 1,69 km/h<br/>Vitesse en mouvement: 3,44 km/h<br/>Vitesse Max.: 7,52 km/h<br/>Altitude minimale: 16 m<br/>Altitude maximale: 130 m<br/>Vitesse de montée: 102,2 m/h<br/>Vitesse de descente: 40,3 m/h<br/>Dénivelé positif: 129 m<br/>Dénivelé négatif: 130 m<br/>Temps de montée: 01:16<br/>Temps de descente: 03:14<br/></p><hr align="center" width="480" style="height: 2px; width: 517px"/>]]></desc>
    <extensions>
      <line xmlns="http://www.topografix.com/GPX/gpx_style/0/2">
        <color>0000ff</color>
        <opacity>1</opacity>
        <width>4</width>
      </line>
    </extensions>
    <trkseg>
      <trkpt lat="49.07495" lon="1.53001">
        <ele>13.57</ele>
        <time>2026-09-03T07:00:27.000Z</time>
      </trkpt>
      <trkpt lat="49.07513" lon="1.53007">
        <ele>14.67</ele>
        <time>2026-09-03T07:00:57.000Z</time>
      </trkpt>
      <trkpt lat="49.07531" lon="1.53012">
        <ele>14.77</ele>
        <time>2026-09-03T07:01:20.000Z</time>
      </trkpt>
      <trkpt lat="49.07548" lon="1.53023">
        <ele>20.19</ele>
        <time>2026-09-03T07:02:02.000Z</time>
      </trkpt>
      <trkpt lat="49.07567" lon="1.53029">
        <ele>20.2</ele>
        <time>2026-09-03T07:02:16.000Z</time>
      </trkpt>
      <trkpt lat="49.07586" lon="1.53032">
        <ele>20.61</ele>
        <time>2026-09-03T07:02:34.000Z</time>
      </trkpt>
      <trkpt lat="49.07604" lon="1.53041">
        <ele>21.21</ele>
        <time>2026-09-03T07:02:52.000Z</time>
      </trkpt>
      <trkpt lat="49.07611" lon="1.53066">
        <ele>20.98</ele>
        <time>2026-09-03T07:03:25.000Z</time>
      </trkpt>
      <trkpt lat="49.07602" lon="1.53091">
        <ele>21.67</ele>
        <time>2026-09-03T07:03:43.000Z</time>
      </trkpt>
      <trkpt lat="49.07597" lon="1.53119">
        <ele>23.36</ele>
        <time>2026-09-03T07:04:00.000Z</time>
      </trkpt>
      <trkpt lat="49.0759" lon="1.53144">
        <ele>19.72</ele>
        <time>2026-09-03T07:04:17.000Z</time>
      </trkpt>
      <trkpt lat="49.07581" lon="1.53169">
        <ele>21.08</ele>
        <time>2026-09-03T07:04:33.000Z</time>
      </trkpt>
      <trkpt lat="49.07575" lon="1.53195">
        <ele>21.76</ele>
        <time>2026-09-03T07:04:50.000Z</time>
      </trkpt>
      <trkpt lat="49.07568" lon="1.5322">
        <ele>20.52</ele>
        <time>2026-09-03T07:05:08.000Z</time>
      </trkpt>
      <trkpt lat="49.07561" lon="1.53247">
        <ele>17.19</ele>
        <time>2026-09-03T07:05:29.000Z</time>
      </trkpt>
      <trkpt lat="49.07554" lon="1.53273">
        <ele>19.2</ele>
        <time>2026-09-03T07:05:42.000Z</time>
      </trkpt>
      <trkpt lat="49.07552" lon="1.53301">
        <ele>18.61</ele>
        <time>2026-09-03T07:05:58.000Z</time>
      </trkpt>
      <trkpt lat="49.0755" lon="1.53329">
        <ele>18.21</ele>
        <time>2026-09-03T07:06:17.000Z</time>
      </trkpt>
      <trkpt lat="49.07548" lon="1.53358">
        <ele>16.23</ele>
        <time>2026-09-03T07:06:33.999Z</time>
      </trkpt>
      <trkpt lat="49.07544" lon="1.53386">
        <ele>23.53</ele>
        <time>2026-09-03T07:06:49.999Z</time>
      </trkpt>
      <trkpt lat="49.07539" lon="1.53413">
        <ele>26.67</ele>
        <time>2026-09-03T07:07:05.999Z</time>
      </trkpt>
      <trkpt lat="49.07537" lon="1.53441">
        <ele>24.45</ele>
        <time>2026-09-03T07:07:22.999Z</time>
      </trkpt>
      <trkpt lat="49.07533" lon="1.53468">
        <ele>23.58</ele>
        <time>2026-09-03T07:07:39.999Z</time>
      </trkpt>
      <trkpt lat="49.07529" lon="1.53496">
        <ele>21.08</ele>
        <time>2026-09-03T07:08:02.999Z</time>
      </trkpt>
      <trkpt lat="49.07526" lon="1.53525">
        <ele>21.92</ele>
        <time>2026-09-03T07:08:15.999Z</time>
      </trkpt>
      <trkpt lat="49.07524" lon="1.53553">
        <ele>23.3</ele>
        <time>2026-09-03T07:08:28.999Z</time>
      </trkpt>
      <trkpt lat="49.07539" lon="1.53569">
        <ele>26.73</ele>
        <time>2026-09-03T07:08:46.999Z</time>
      </trkpt>
      <trkpt lat="49.07556" lon="1.53579">
        <ele>27.93</ele>
        <time>2026-09-03T07:09:06.999Z</time>
      </trkpt>
      <trkpt lat="49.07574" lon="1.53587">
        <ele>31.63</ele>
        <time>2026-09-03T07:09:25.999Z</time>
      </trkpt>
      <trkpt lat="49.07592" lon="1.53595">
        <ele>33.22</ele>
        <time>2026-09-03T07:09:47.999Z</time>
      </trkpt>
      <trkpt lat="49.07603" lon="1.53618">
        <ele>36.24</ele>
        <time>2026-09-03T07:10:09.999Z</time>
      </trkpt>
      <trkpt lat="49.07598" lon="1.53645">
        <ele>36.84</ele>
        <time>2026-09-03T07:10:31.999Z</time>
      </trkpt>
      <trkpt lat="49.07593" lon="1.53672">
        <ele>32.13</ele>
        <time>2026-09-03T07:10:48.999Z</time>
      </trkpt>
      <trkpt lat="49.07588" lon="1.53698">
        <ele>31.71</ele>
        <time>2026-09-03T07:11:05.999Z</time>
      </trkpt>
      <trkpt lat="49.07581" lon="1.53725">
        <ele>35.05</ele>
        <time>2026-09-03T07:11:21.999Z</time>
      </trkpt>
      <trkpt lat="49.07576" lon="1.53751">
        <ele>34.77</ele>
        <time>2026-09-03T07:11:36.999Z</time>
      </trkpt>
      <trkpt lat="49.0757" lon="1.53779">
        <ele>36.53</ele>
        <time>2026-09-03T07:11:53.999Z</time>
      </trkpt>
      <trkpt lat="49.07565" lon="1.53806">
        <ele>36.92</ele>
        <time>2026-09-03T07:12:09.999Z</time>
      </trkpt>
      <trkpt lat="49.07561" lon="1.53834">
        <ele>35.66</ele>
        <time>2026-09-03T07:12:26.999Z</time>
      </trkpt>
      <trkpt lat="49.07557" lon="1.53861">
        <ele>35.46</ele>
        <time>2026-09-03T07:12:43.999Z</time>
      </trkpt>
      <trkpt lat="49.07555" lon="1.5389">
        <ele>38.48</ele>
        <time>2026-09-03T07:13:01.999Z</time>
      </trkpt>
      <trkpt lat="49.07558" lon="1.53917">
        <ele>37.33</ele>
        <time>2026-09-03T07:13:19.999Z</time>
      </trkpt>
      <trkpt lat="49.07559" lon="1.53946">
        <ele>39.41</ele>
        <time>2026-09-03T07:13:35.999Z</time>
      </trkpt>
      <trkpt lat="49.07561" lon="1.53975">
        <ele>41.39</ele>
        <time>2026-09-03T07:13:53.999Z</time>
      </trkpt>
      <trkpt lat="49.0756" lon="1.54003">
        <ele>40.2</ele>
        <time>2026-09-03T07:14:12.999Z</time>
      </trkpt>
      <trkpt lat="49.07557" lon="1.54031">
        <ele>41.05</ele>
        <time>2026-09-03T07:14:29.999Z</time>
      </trkpt>
      <trkpt lat="49.0755" lon="1.54057">
        <ele>44.02</ele>
        <time>2026-09-03T07:14:52.999Z</time>
      </trkpt>
      <trkpt lat="49.07553" lon="1.54085">
        <ele>46.58</ele>
        <time>2026-09-03T07:15:10.999Z</time>
      </trkpt>
      <trkpt lat="49.07552" lon="1.54113">
        <ele>47.66</ele>
        <time>2026-09-03T07:15:27.999Z</time>
      </trkpt>
      <trkpt lat="49.07553" lon="1.54141">
        <ele>44.72</ele>
        <time>2026-09-03T07:15:45.999Z</time>
      </trkpt>
      <trkpt lat="49.0755" lon="1.5417">
        <ele>46.57</ele>
        <time>2026-09-03T07:16:00.999Z</time>
      </trkpt>
      <trkpt lat="49.07548" lon="1.54197">
        <ele>46.11</ele>
        <time>2026-09-03T07:16:17.999Z</time>
      </trkpt>
      <trkpt lat="49.07546" lon="1.54225">
        <ele>46.98</ele>
        <time>2026-09-03T07:16:33.999Z</time>
      </trkpt>
      <trkpt lat="49.07562" lon="1.54239">
        <ele>52.33</ele>
        <time>2026-09-03T07:17:30.999Z</time>
      </trkpt>
      <trkpt lat="49.0758" lon="1.54234">
        <ele>60.2</ele>
        <time>2026-09-03T07:17:55.999Z</time>
      </trkpt>
      <trkpt lat="49.07597" lon="1.54226">
        <ele>66.21</ele>
        <time>2026-09-03T07:18:24.999Z</time>
      </trkpt>
      <trkpt lat="49.07614" lon="1.54217">
        <ele>68.6</ele>
        <time>2026-09-03T07:20:49.999Z</time>
      </trkpt>
      <trkpt lat="49.07632" lon="1.5421">
        <ele>76.51</ele>
        <time>2026-09-03T07:21:26.999Z</time>
      </trkpt>
      <trkpt lat="49.0765" lon="1.54205">
        <ele>84.73</ele>
        <time>2026-09-03T07:22:06.999Z</time>
      </trkpt>
      <trkpt lat="49.07669" lon="1.54202">
        <ele>91.8</ele>
        <time>2026-09-03T07:23:58.999Z</time>
      </trkpt>
      <trkpt lat="49.07681" lon="1.54223">
        <ele>85.39</ele>
        <time>2026-09-03T07:24:26.000Z</time>
      </trkpt>
      <trkpt lat="49.07688" lon="1.5425">
        <ele>82.45</ele>
        <time>2026-09-03T07:24:47.000Z</time>
      </trkpt>
      <trkpt lat="49.07692" lon="1.54277">
        <ele>81.62</ele>
        <time>2026-09-03T07:25:06.000Z</time>
      </trkpt>
      <trkpt lat="49.07696" lon="1.54305">
        <ele>79.01</ele>
        <time>2026-09-03T07:25:31.000Z</time>
      </trkpt>
      <trkpt lat="49.07698" lon="1.54333">
        <ele>77.17</ele>
        <time>2026-09-03T07:25:51.000Z</time>
      </trkpt>
      <trkpt lat="49.07693" lon="1.5436">
        <ele>78.51</ele>
        <time>2026-09-03T07:26:12.000Z</time>
      </trkpt>
      <trkpt lat="49.07686" lon="1.54387">
        <ele>80.95</ele>
        <time>2026-09-03T07:26:35.000Z</time>
      </trkpt>
      <trkpt lat="49.07676" lon="1.5441">
        <ele>88.57</ele>
        <time>2026-09-03T07:27:03.000Z</time>
      </trkpt>
      <trkpt lat="49.07664" lon="1.54432">
        <ele>91.14</ele>
        <time>2026-09-03T07:27:28.000Z</time>
      </trkpt>
      <trkpt lat="49.07651" lon="1.54451">
        <ele>95.74</ele>
        <time>2026-09-03T07:27:48.000Z</time>
      </trkpt>
      <trkpt lat="49.0766" lon="1.54475">
        <ele>91.57</ele>
        <time>2026-09-03T07:32:57.000Z</time>
      </trkpt>
      <trkpt lat="49.07677" lon="1.54488">
        <ele>91.79</ele>
        <time>2026-09-03T07:33:12.000Z</time>
      </trkpt>
      <trkpt lat="49.07694" lon="1.54501">
        <ele>90.2</ele>
        <time>2026-09-03T07:33:27.000Z</time>
      </trkpt>
      <trkpt lat="49.0771" lon="1.54518">
        <ele>89.04</ele>
        <time>2026-09-03T07:33:43.000Z</time>
      </trkpt>
      <trkpt lat="49.07723" lon="1.54538">
        <ele>88.16</ele>
        <time>2026-09-03T07:33:58.000Z</time>
      </trkpt>
      <trkpt lat="49.0773" lon="1.54565">
        <ele>87.21</ele>
        <time>2026-09-03T07:34:14.000Z</time>
      </trkpt>
      <trkpt lat="49.07733" lon="1.54592">
        <ele>87.76</ele>
        <time>2026-09-03T07:34:29.000Z</time>
      </trkpt>
      <trkpt lat="49.07727" lon="1.54618">
        <ele>88.31</ele>
        <time>2026-09-03T07:34:45.000Z</time>
      </trkpt>
      <trkpt lat="49.07717" lon="1.54642">
        <ele>91.35</ele>
        <time>2026-09-03T07:35:00.000Z</time>
      </trkpt>
      <trkpt lat="49.07708" lon="1.54667">
        <ele>90.51</ele>
        <time>2026-09-03T07:35:26.000Z</time>
      </trkpt>
      <trkpt lat="49.077" lon="1.54692">
        <ele>91.57</ele>
        <time>2026-09-03T07:35:42.000Z</time>
      </trkpt>
      <trkpt lat="49.07692" lon="1.54718">
        <ele>92.83</ele>
        <time>2026-09-03T07:35:59.000Z</time>
      </trkpt>
      <trkpt lat="49.0769" lon="1.54748">
        <ele>90.28</ele>
        <time>2026-09-03T07:36:33.000Z</time>
      </trkpt>
      <trkpt lat="49.07695" lon="1.54775">
        <ele>85.85</ele>
        <time>2026-09-03T07:36:51.000Z</time>
      </trkpt>
      <trkpt lat="49.07709" lon="1.54792">
        <ele>84.29</ele>
        <time>2026-09-03T07:37:09.000Z</time>
      </trkpt>
      <trkpt lat="49.07727" lon="1.54801">
        <ele>88.43</ele>
        <time>2026-09-03T07:37:35.000Z</time>
      </trkpt>
      <trkpt lat="49.07744" lon="1.54814">
        <ele>91.55</ele>
        <time>2026-09-03T07:37:49.000Z</time>
      </trkpt>
      <trkpt lat="49.07762" lon="1.54822">
        <ele>88.2</ele>
        <time>2026-09-03T07:38:06.000Z</time>
      </trkpt>
      <trkpt lat="49.0778" lon="1.54823">
        <ele>84.91</ele>
        <time>2026-09-03T07:38:22.000Z</time>
      </trkpt>
      <trkpt lat="49.07797" lon="1.54834">
        <ele>84.95</ele>
        <time>2026-09-03T07:38:40.000Z</time>
      </trkpt>
      <trkpt lat="49.07814" lon="1.54845">
        <ele>83.89</ele>
        <time>2026-09-03T07:38:57.000Z</time>
      </trkpt>
      <trkpt lat="49.07828" lon="1.54865">
        <ele>88.57</ele>
        <time>2026-09-03T07:39:10.000Z</time>
      </trkpt>
      <trkpt lat="49.07842" lon="1.54881">
        <ele>82.78</ele>
        <time>2026-09-03T07:39:29.000Z</time>
      </trkpt>
      <trkpt lat="49.07858" lon="1.54894">
        <ele>81.49</ele>
        <time>2026-09-03T07:39:56.000Z</time>
      </trkpt>
      <trkpt lat="49.07874" lon="1.54878">
        <ele>79.08</ele>
        <time>2026-09-03T07:40:15.000Z</time>
      </trkpt>
      <trkpt lat="49.07892" lon="1.5487">
        <ele>79.09</ele>
        <time>2026-09-03T07:40:32.000Z</time>
      </trkpt>
      <trkpt lat="49.0791" lon="1.54862">
        <ele>76.39</ele>
        <time>2026-09-03T07:40:53.000Z</time>
      </trkpt>
      <trkpt lat="49.07928" lon="1.54857">
        <ele>73.02</ele>
        <time>2026-09-03T07:41:12.000Z</time>
      </trkpt>
      <trkpt lat="49.07944" lon="1.54872">
        <ele>75.83</ele>
        <time>2026-09-03T07:42:04.000Z</time>
      </trkpt>
      <trkpt lat="49.07934" lon="1.54847">
        <ele>75.2</ele>
        <time>2026-09-03T07:42:31.000Z</time>
      </trkpt>
      <trkpt lat="49.07935" lon="1.54819">
        <ele>78.7</ele>
        <time>2026-09-03T07:42:50.999Z</time>
      </trkpt>
      <trkpt lat="49.07938" lon="1.54792">
        <ele>81.43</ele>
        <time>2026-09-03T07:43:11.999Z</time>
      </trkpt>
      <trkpt lat="49.07948" lon="1.54768">
        <ele>86.19</ele>
        <time>2026-09-03T07:43:33.999Z</time>
      </trkpt>
      <trkpt lat="49.07956" lon="1.54743">
        <ele>84.6</ele>
        <time>2026-09-03T07:44:01.999Z</time>
      </trkpt>
      <trkpt lat="49.07957" lon="1.54716">
        <ele>83.32</ele>
        <time>2026-09-03T07:44:21.999Z</time>
      </trkpt>
      <trkpt lat="49.07959" lon="1.54687">
        <ele>85.31</ele>
        <time>2026-09-03T07:44:50.999Z</time>
      </trkpt>
      <trkpt lat="49.07963" lon="1.5466">
        <ele>87.92</ele>
        <time>2026-09-03T07:45:13.999Z</time>
      </trkpt>
      <trkpt lat="49.07976" lon="1.54641">
        <ele>91.63</ele>
        <time>2026-09-03T07:45:27.999Z</time>
      </trkpt>
      <trkpt lat="49.07989" lon="1.5462">
        <ele>95.36</ele>
        <time>2026-09-03T07:45:45.999Z</time>
      </trkpt>
      <trkpt lat="49.08" lon="1.54598">
        <ele>98.15</ele>
        <time>2026-09-03T07:46:04.999Z</time>
      </trkpt>
      <trkpt lat="49.08011" lon="1.54575">
        <ele>100.06</ele>
        <time>2026-09-03T07:46:27.999Z</time>
      </trkpt>
      <trkpt lat="49.08021" lon="1.54551">
        <ele>103.41</ele>
        <time>2026-09-03T07:46:48.999Z</time>
      </trkpt>
      <trkpt lat="49.08027" lon="1.54525">
        <ele>105.65</ele>
        <time>2026-09-03T07:47:08.999Z</time>
      </trkpt>
      <trkpt lat="49.08024" lon="1.54497">
        <ele>110.26</ele>
        <time>2026-09-03T07:47:33.999Z</time>
      </trkpt>
      <trkpt lat="49.08028" lon="1.5447">
        <ele>111.43</ele>
        <time>2026-09-03T07:47:50.999Z</time>
      </trkpt>
      <trkpt lat="49.08031" lon="1.54442">
        <ele>112.93</ele>
        <time>2026-09-03T07:48:06.999Z</time>
      </trkpt>
      <trkpt lat="49.08026" lon="1.54415">
        <ele>117.11</ele>
        <time>2026-09-03T07:48:29.999Z</time>
      </trkpt>
      <trkpt lat="49.08019" lon="1.54389">
        <ele>119.51</ele>
        <time>2026-09-03T07:48:49.999Z</time>
      </trkpt>
      <trkpt lat="49.08014" lon="1.54361">
        <ele>117.87</ele>
        <time>2026-09-03T07:49:06.999Z</time>
      </trkpt>
      <trkpt lat="49.08032" lon="1.54355">
        <ele>124.4</ele>
        <time>2026-09-03T07:52:59.999Z</time>
      </trkpt>
      <trkpt lat="49.08048" lon="1.54369">
        <ele>123.67</ele>
        <time>2026-09-03T07:53:19.999Z</time>
      </trkpt>
      <trkpt lat="49.08064" lon="1.54385">
        <ele>123.41</ele>
        <time>2026-09-03T07:53:39.999Z</time>
      </trkpt>
      <trkpt lat="49.08082" lon="1.54395">
        <ele>125.15</ele>
        <time>2026-09-03T07:53:57.999Z</time>
      </trkpt>
      <trkpt lat="49.08097" lon="1.54413">
        <ele>128.09</ele>
        <time>2026-09-03T07:54:19.999Z</time>
      </trkpt>
      <trkpt lat="49.08109" lon="1.54435">
        <ele>131.19</ele>
        <time>2026-09-03T07:54:38.999Z</time>
      </trkpt>
      <trkpt lat="49.08124" lon="1.54452">
        <ele>131.45</ele>
        <time>2026-09-03T07:54:55.999Z</time>
      </trkpt>
      <trkpt lat="49.08136" lon="1.54473">
        <ele>129.31</ele>
        <time>2026-09-03T07:55:14.999Z</time>
      </trkpt>
      <trkpt lat="49.0815" lon="1.54491">
        <ele>128.08</ele>
        <time>2026-09-03T07:55:31.999Z</time>
      </trkpt>
      <trkpt lat="49.08163" lon="1.54512">
        <ele>127.78</ele>
        <time>2026-09-03T07:55:48.999Z</time>
      </trkpt>
      <trkpt lat="49.08174" lon="1.54533">
        <ele>128.77</ele>
        <time>2026-09-03T07:56:05.999Z</time>
      </trkpt>
      <trkpt lat="49.08187" lon="1.54554">
        <ele>127.33</ele>
        <time>2026-09-03T07:56:21.999Z</time>
      </trkpt>
      <trkpt lat="49.08198" lon="1.54576">
        <ele>128.41</ele>
        <time>2026-09-03T07:56:38.999Z</time>
      </trkpt>
      <trkpt lat="49.0821" lon="1.54597">
        <ele>127.78</ele>
        <time>2026-09-03T07:56:54.999Z</time>
      </trkpt>
      <trkpt lat="49.08225" lon="1.54614">
        <ele>128.69</ele>
        <time>2026-09-03T07:57:09.999Z</time>
      </trkpt>
      <trkpt lat="49.08242" lon="1.54628">
        <ele>127.8</ele>
        <time>2026-09-03T07:57:27.999Z</time>
      </trkpt>
      <trkpt lat="49.08256" lon="1.54645">
        <ele>129.34</ele>
        <time>2026-09-03T07:57:43.999Z</time>
      </trkpt>
      <trkpt lat="49.08274" lon="1.54654">
        <ele>127.94</ele>
        <time>2026-09-03T07:58:01.999Z</time>
      </trkpt>
      <trkpt lat="49.08291" lon="1.54662">
        <ele>126.3</ele>
        <time>2026-09-03T07:58:19.999Z</time>
      </trkpt>
      <trkpt lat="49.08308" lon="1.54673">
        <ele>127.12</ele>
        <time>2026-09-03T07:58:47.999Z</time>
      </trkpt>
      <trkpt lat="49.08308" lon="1.54645">
        <ele>129.53</ele>
        <time>2026-09-03T07:59:37.999Z</time>
      </trkpt>
      <trkpt lat="49.08308" lon="1.54617">
        <ele>129.72</ele>
        <time>2026-09-03T07:59:56.999Z</time>
      </trkpt>
      <trkpt lat="49.08295" lon="1.54596">
        <ele>127.52</ele>
        <time>2026-09-03T08:00:08.999Z</time>
      </trkpt>
      <trkpt lat="49.08282" lon="1.54575">
        <ele>127.53</ele>
        <time>2026-09-03T08:00:19.999Z</time>
      </trkpt>
      <trkpt lat="49.08273" lon="1.5455">
        <ele>125.64</ele>
        <time>2026-09-03T08:00:33.999Z</time>
      </trkpt>
      <trkpt lat="49.08284" lon="1.54528">
        <ele>124.19</ele>
        <time>2026-09-03T08:00:47.000Z</time>
      </trkpt>
      <trkpt lat="49.08301" lon="1.54519">
        <ele>126.43</ele>
        <time>2026-09-03T08:00:53.000Z</time>
      </trkpt>
      <trkpt lat="49.08314" lon="1.54497">
        <ele>129.71</ele>
        <time>2026-09-03T08:01:07.000Z</time>
      </trkpt>
      <trkpt lat="49.0832" lon="1.5447">
        <ele>132.62</ele>
        <time>2026-09-03T08:01:24.000Z</time>
      </trkpt>
      <trkpt lat="49.08324" lon="1.54441">
        <ele>132.1</ele>
        <time>2026-09-03T08:01:43.000Z</time>
      </trkpt>
      <trkpt lat="49.08329" lon="1.54415">
        <ele>132.52</ele>
        <time>2026-09-03T08:02:00.000Z</time>
      </trkpt>
      <trkpt lat="49.08331" lon="1.54386">
        <ele>131.6</ele>
        <time>2026-09-03T08:02:18.000Z</time>
      </trkpt>
      <trkpt lat="49.08332" lon="1.54358">
        <ele>131.67</ele>
        <time>2026-09-03T08:16:24.000Z</time>
      </trkpt>
      <trkpt lat="49.08335" lon="1.5433">
        <ele>131.99</ele>
        <time>2026-09-03T08:16:43.000Z</time>
      </trkpt>
      <trkpt lat="49.08335" lon="1.54302">
        <ele>130.16</ele>
        <time>2026-09-03T08:17:00.000Z</time>
      </trkpt>
      <trkpt lat="49.08335" lon="1.54274">
        <ele>131.31</ele>
        <time>2026-09-03T08:17:18.000Z</time>
      </trkpt>
      <trkpt lat="49.08339" lon="1.54247">
        <ele>132.18</ele>
        <time>2026-09-03T08:17:35.000Z</time>
      </trkpt>
      <trkpt lat="49.08346" lon="1.54222">
        <ele>132.08</ele>
        <time>2026-09-03T08:17:52.000Z</time>
      </trkpt>
      <trkpt lat="49.08357" lon="1.54198">
        <ele>132.49</ele>
        <time>2026-09-03T08:18:07.999Z</time>
      </trkpt>
      <trkpt lat="49.08365" lon="1.54173">
        <ele>132.56</ele>
        <time>2026-09-03T08:18:25.999Z</time>
      </trkpt>
      <trkpt lat="49.08371" lon="1.54147">
        <ele>131.56</ele>
        <time>2026-09-03T08:18:40.999Z</time>
      </trkpt>
      <trkpt lat="49.08373" lon="1.5412">
        <ele>130.1</ele>
        <time>2026-09-03T08:18:57.999Z</time>
      </trkpt>
      <trkpt lat="49.08373" lon="1.54092">
        <ele>130.78</ele>
        <time>2026-09-03T08:19:14.999Z</time>
      </trkpt>
      <trkpt lat="49.08376" lon="1.54064">
        <ele>130.55</ele>
        <time>2026-09-03T08:19:30.999Z</time>
      </trkpt>
      <trkpt lat="49.08381" lon="1.54037">
        <ele>130.31</ele>
        <time>2026-09-03T08:19:46.999Z</time>
      </trkpt>
      <trkpt lat="49.08392" lon="1.54015">
        <ele>126.5</ele>
        <time>2026-09-03T08:20:03.999Z</time>
      </trkpt>
      <trkpt lat="49.08401" lon="1.53991">
        <ele>128.83</ele>
        <time>2026-09-03T08:20:18.999Z</time>
      </trkpt>
      <trkpt lat="49.08419" lon="1.53981">
        <ele>132.82</ele>
        <time>2026-09-03T08:20:38.999Z</time>
      </trkpt>
      <trkpt lat="49.08438" lon="1.5398">
        <ele>134.02</ele>
        <time>2026-09-03T08:20:55.999Z</time>
      </trkpt>
      <trkpt lat="49.08454" lon="1.53968">
        <ele>130.14</ele>
        <time>2026-09-03T08:21:12.999Z</time>
      </trkpt>
      <trkpt lat="49.08472" lon="1.53957">
        <ele>130.2</ele>
        <time>2026-09-03T08:21:31.999Z</time>
      </trkpt>
      <trkpt lat="49.0849" lon="1.53943">
        <ele>127.77</ele>
        <time>2026-09-03T08:21:49.999Z</time>
      </trkpt>
      <trkpt lat="49.08507" lon="1.53937">
        <ele>127.48</ele>
        <time>2026-09-03T08:22:04.999Z</time>
      </trkpt>
      <trkpt lat="49.08526" lon="1.53932">
        <ele>127.76</ele>
        <time>2026-09-03T08:22:20.999Z</time>
      </trkpt>
      <trkpt lat="49.08544" lon="1.53923">
        <ele>128.83</ele>
        <time>2026-09-03T08:22:35.999Z</time>
      </trkpt>
      <trkpt lat="49.0856" lon="1.5391">
        <ele>128.48</ele>
        <time>2026-09-03T08:22:51.999Z</time>
      </trkpt>
      <trkpt lat="49.08556" lon="1.53883">
        <ele>127.6</ele>
        <time>2026-09-03T08:23:11.999Z</time>
      </trkpt>
      <trkpt lat="49.08538" lon="1.53874">
        <ele>126.43</ele>
        <time>2026-09-03T08:23:28.999Z</time>
      </trkpt>
      <trkpt lat="49.08521" lon="1.53866">
        <ele>122.82</ele>
        <time>2026-09-03T08:23:44.999Z</time>
      </trkpt>
      <trkpt lat="49.08503" lon="1.53856">
        <ele>121.97</ele>
        <time>2026-09-03T08:24:00.999Z</time>
      </trkpt>
      <trkpt lat="49.08487" lon="1.53845">
        <ele>120.91</ele>
        <time>2026-09-03T08:24:15.999Z</time>
      </trkpt>
      <trkpt lat="49.08474" lon="1.53825">
        <ele>120.55</ele>
        <time>2026-09-03T08:24:34.999Z</time>
      </trkpt>
      <trkpt lat="49.08473" lon="1.53798">
        <ele>121.37</ele>
        <time>2026-09-03T08:24:52.999Z</time>
      </trkpt>
      <trkpt lat="49.08473" lon="1.5377">
        <ele>119.21</ele>
        <time>2026-09-03T08:25:08.999Z</time>
      </trkpt>
      <trkpt lat="49.08472" lon="1.53742">
        <ele>120.77</ele>
        <time>2026-09-03T08:25:25.999Z</time>
      </trkpt>
      <trkpt lat="49.0847" lon="1.53713">
        <ele>121.4</ele>
        <time>2026-09-03T08:25:40.999Z</time>
      </trkpt>
      <trkpt lat="49.08477" lon="1.53687">
        <ele>128.46</ele>
        <time>2026-09-03T08:26:03.999Z</time>
      </trkpt>
      <trkpt lat="49.08485" lon="1.53661">
        <ele>130.05</ele>
        <time>2026-09-03T08:26:20.999Z</time>
      </trkpt>
      <trkpt lat="49.08494" lon="1.53637">
        <ele>130.45</ele>
        <time>2026-09-03T08:26:39.999Z</time>
      </trkpt>
      <trkpt lat="49.08502" lon="1.53611">
        <ele>127.28</ele>
        <time>2026-09-03T08:27:07.999Z</time>
      </trkpt>
      <trkpt lat="49.08509" lon="1.53585">
        <ele>127.19</ele>
        <time>2026-09-03T08:27:20.999Z</time>
      </trkpt>
      <trkpt lat="49.08518" lon="1.5356">
        <ele>124.08</ele>
        <time>2026-09-03T08:27:34.999Z</time>
      </trkpt>
      <trkpt lat="49.08524" lon="1.53534">
        <ele>124.87</ele>
        <time>2026-09-03T08:27:49.999Z</time>
      </trkpt>
      <trkpt lat="49.08533" lon="1.5351">
        <ele>125.23</ele>
        <time>2026-09-03T08:28:04.999Z</time>
      </trkpt>
      <trkpt lat="49.08546" lon="1.53489">
        <ele>125.07</ele>
        <time>2026-09-03T08:28:21.999Z</time>
      </trkpt>
      <trkpt lat="49.08556" lon="1.53465">
        <ele>125.34</ele>
        <time>2026-09-03T08:28:35.999Z</time>
      </trkpt>
      <trkpt lat="49.08567" lon="1.53443">
        <ele>128.28</ele>
        <time>2026-09-03T08:28:50.999Z</time>
      </trkpt>
      <trkpt lat="49.08582" lon="1.53423">
        <ele>127.16</ele>
        <time>2026-09-03T08:29:06.999Z</time>
      </trkpt>
      <trkpt lat="49.08594" lon="1.53401">
        <ele>128.14</ele>
        <time>2026-09-03T08:29:22.999Z</time>
      </trkpt>
      <trkpt lat="49.08606" lon="1.5338">
        <ele>126.58</ele>
        <time>2026-09-03T08:29:38.999Z</time>
      </trkpt>
      <trkpt lat="49.08619" lon="1.53361">
        <ele>130.6</ele>
        <time>2026-09-03T08:29:54.999Z</time>
      </trkpt>
      <trkpt lat="49.0863" lon="1.53339">
        <ele>127.16</ele>
        <time>2026-09-03T08:30:10.999Z</time>
      </trkpt>
      <trkpt lat="49.08641" lon="1.53315">
        <ele>124.33</ele>
        <time>2026-09-03T08:30:26.999Z</time>
      </trkpt>
      <trkpt lat="49.08656" lon="1.53296">
        <ele>126.19</ele>
        <time>2026-09-03T08:30:42.999Z</time>
      </trkpt>
      <trkpt lat="49.08668" lon="1.53274">
        <ele>127.14</ele>
        <time>2026-09-03T08:30:56.999Z</time>
      </trkpt>
      <trkpt lat="49.0868" lon="1.53253">
        <ele>126.42</ele>
        <time>2026-09-03T08:31:11.999Z</time>
      </trkpt>
      <trkpt lat="49.08693" lon="1.53232">
        <ele>125.86</ele>
        <time>2026-09-03T08:31:27.999Z</time>
      </trkpt>
      <trkpt lat="49.08706" lon="1.53212">
        <ele>128.52</ele>
        <time>2026-09-03T08:31:42.999Z</time>
      </trkpt>
      <trkpt lat="49.08717" lon="1.5319">
        <ele>126.1</ele>
        <time>2026-09-03T08:31:58.999Z</time>
      </trkpt>
      <trkpt lat="49.0873" lon="1.53168">
        <ele>124</ele>
        <time>2026-09-03T08:32:15.999Z</time>
      </trkpt>
      <trkpt lat="49.08742" lon="1.53147">
        <ele>124.89</ele>
        <time>2026-09-03T08:32:30.999Z</time>
      </trkpt>
      <trkpt lat="49.08756" lon="1.53126">
        <ele>125.81</ele>
        <time>2026-09-03T08:32:46.999Z</time>
      </trkpt>
      <trkpt lat="49.08768" lon="1.53104">
        <ele>125.07</ele>
        <time>2026-09-03T08:33:01.999Z</time>
      </trkpt>
      <trkpt lat="49.0878" lon="1.53084">
        <ele>122.45</ele>
        <time>2026-09-03T08:33:16.999Z</time>
      </trkpt>
      <trkpt lat="49.0879" lon="1.53059">
        <ele>122.42</ele>
        <time>2026-09-03T08:33:32.999Z</time>
      </trkpt>
      <trkpt lat="49.08803" lon="1.53037">
        <ele>123.1</ele>
        <time>2026-09-03T08:33:48.999Z</time>
      </trkpt>
      <trkpt lat="49.08813" lon="1.53012">
        <ele>121.32</ele>
        <time>2026-09-03T08:34:03.999Z</time>
      </trkpt>
      <trkpt lat="49.08824" lon="1.5299">
        <ele>120.69</ele>
        <time>2026-09-03T08:34:20.999Z</time>
      </trkpt>
      <trkpt lat="49.08835" lon="1.52966">
        <ele>120.46</ele>
        <time>2026-09-03T08:34:37.999Z</time>
      </trkpt>
      <trkpt lat="49.08844" lon="1.52941">
        <ele>119.06</ele>
        <time>2026-09-03T08:37:46.000Z</time>
      </trkpt>
      <trkpt lat="49.08855" lon="1.52918">
        <ele>119.77</ele>
        <time>2026-09-03T08:38:07.000Z</time>
      </trkpt>
      <trkpt lat="49.08867" lon="1.52897">
        <ele>118.7</ele>
        <time>2026-09-03T08:38:25.000Z</time>
      </trkpt>
      <trkpt lat="49.08878" lon="1.52873">
        <ele>116</ele>
        <time>2026-09-03T08:38:42.000Z</time>
      </trkpt>
      <trkpt lat="49.08881" lon="1.52844">
        <ele>114.32</ele>
        <time>2026-09-03T08:38:59.000Z</time>
      </trkpt>
      <trkpt lat="49.08885" lon="1.52817">
        <ele>113.57</ele>
        <time>2026-09-03T08:39:17.000Z</time>
      </trkpt>
      <trkpt lat="49.0889" lon="1.52789">
        <ele>114.62</ele>
        <time>2026-09-03T08:39:33.000Z</time>
      </trkpt>
      <trkpt lat="49.08894" lon="1.52761">
        <ele>112.6</ele>
        <time>2026-09-03T08:39:49.000Z</time>
      </trkpt>
      <trkpt lat="49.08898" lon="1.52733">
        <ele>114.87</ele>
        <time>2026-09-03T08:40:05.000Z</time>
      </trkpt>
      <trkpt lat="49.08902" lon="1.52705">
        <ele>114.1</ele>
        <time>2026-09-03T08:40:22.000Z</time>
      </trkpt>
      <trkpt lat="49.08906" lon="1.52678">
        <ele>113.41</ele>
        <time>2026-09-03T08:40:37.000Z</time>
      </trkpt>
      <trkpt lat="49.0891" lon="1.5265">
        <ele>113.5</ele>
        <time>2026-09-03T08:40:54.000Z</time>
      </trkpt>
      <trkpt lat="49.08913" lon="1.52622">
        <ele>114.93</ele>
        <time>2026-09-03T08:41:10.000Z</time>
      </trkpt>
      <trkpt lat="49.08916" lon="1.52593">
        <ele>115.04</ele>
        <time>2026-09-03T08:41:27.000Z</time>
      </trkpt>
      <trkpt lat="49.08919" lon="1.52566">
        <ele>113.14</ele>
        <time>2026-09-03T08:41:43.000Z</time>
      </trkpt>
      <trkpt lat="49.08921" lon="1.52538">
        <ele>111.89</ele>
        <time>2026-09-03T08:41:59.000Z</time>
      </trkpt>
      <trkpt lat="49.08924" lon="1.52509">
        <ele>111.64</ele>
        <time>2026-09-03T08:42:15.000Z</time>
      </trkpt>
      <trkpt lat="49.08928" lon="1.52481">
        <ele>112.54</ele>
        <time>2026-09-03T08:42:31.000Z</time>
      </trkpt>
      <trkpt lat="49.08932" lon="1.52453">
        <ele>112.94</ele>
        <time>2026-09-03T08:42:47.000Z</time>
      </trkpt>
      <trkpt lat="49.08936" lon="1.52426">
        <ele>113.57</ele>
        <time>2026-09-03T08:43:02.000Z</time>
      </trkpt>
      <trkpt lat="49.08939" lon="1.52398">
        <ele>112.66</ele>
        <time>2026-09-03T08:43:20.000Z</time>
      </trkpt>
      <trkpt lat="49.08943" lon="1.5237">
        <ele>111.33</ele>
        <time>2026-09-03T08:43:35.000Z</time>
      </trkpt>
      <trkpt lat="49.08947" lon="1.52343">
        <ele>111.2</ele>
        <time>2026-09-03T08:43:52.000Z</time>
      </trkpt>
      <trkpt lat="49.08949" lon="1.52315">
        <ele>113.09</ele>
        <time>2026-09-03T08:44:09.000Z</time>
      </trkpt>
      <trkpt lat="49.08954" lon="1.52288">
        <ele>112.26</ele>
        <time>2026-09-03T08:44:26.000Z</time>
      </trkpt>
      <trkpt lat="49.0896" lon="1.52262">
        <ele>109.46</ele>
        <time>2026-09-03T08:44:43.000Z</time>
      </trkpt>
      <trkpt lat="49.08962" lon="1.52233">
        <ele>106.54</ele>
        <time>2026-09-03T08:45:00.000Z</time>
      </trkpt>
      <trkpt lat="49.08967" lon="1.52205">
        <ele>106.67</ele>
        <time>2026-09-03T08:45:17.000Z</time>
      </trkpt>
      <trkpt lat="49.08971" lon="1.52178">
        <ele>107.85</ele>
        <time>2026-09-03T08:45:34.000Z</time>
      </trkpt>
      <trkpt lat="49.08975" lon="1.52151">
        <ele>107.93</ele>
        <time>2026-09-03T08:45:50.000Z</time>
      </trkpt>
      <trkpt lat="49.08977" lon="1.52123">
        <ele>106.19</ele>
        <time>2026-09-03T08:46:07.000Z</time>
      </trkpt>
      <trkpt lat="49.0898" lon="1.52095">
        <ele>102.75</ele>
        <time>2026-09-03T08:46:23.000Z</time>
      </trkpt>
      <trkpt lat="49.08983" lon="1.52068">
        <ele>103.37</ele>
        <time>2026-09-03T08:46:39.000Z</time>
      </trkpt>
      <trkpt lat="49.08987" lon="1.5204">
        <ele>105.12</ele>
        <time>2026-09-03T08:46:56.000Z</time>
      </trkpt>
      <trkpt lat="49.08991" lon="1.52012">
        <ele>103.53</ele>
        <time>2026-09-03T08:47:13.000Z</time>
      </trkpt>
      <trkpt lat="49.08993" lon="1.51984">
        <ele>104.09</ele>
        <time>2026-09-03T08:47:29.000Z</time>
      </trkpt>
      <trkpt lat="49.08976" lon="1.51974">
        <ele>109.58</ele>
        <time>2026-09-03T08:47:51.000Z</time>
      </trkpt>
      <trkpt lat="49.0896" lon="1.51962">
        <ele>106.5</ele>
        <time>2026-09-03T08:48:27.000Z</time>
      </trkpt>
      <trkpt lat="49.08943" lon="1.51951">
        <ele>106.24</ele>
        <time>2026-09-03T08:48:42.000Z</time>
      </trkpt>
      <trkpt lat="49.08925" lon="1.51944">
        <ele>102.05</ele>
        <time>2026-09-03T08:49:00.000Z</time>
      </trkpt>
      <trkpt lat="49.08909" lon="1.51933">
        <ele>101.92</ele>
        <time>2026-09-03T08:49:16.000Z</time>
      </trkpt>
      <trkpt lat="49.08891" lon="1.51923">
        <ele>103.63</ele>
        <time>2026-09-03T08:49:34.000Z</time>
      </trkpt>
      <trkpt lat="49.08874" lon="1.51911">
        <ele>105.29</ele>
        <time>2026-09-03T08:49:51.000Z</time>
      </trkpt>
      <trkpt lat="49.08857" lon="1.51898">
        <ele>106.3</ele>
        <time>2026-09-03T08:50:08.000Z</time>
      </trkpt>
      <trkpt lat="49.0884" lon="1.51891">
        <ele>107.6</ele>
        <time>2026-09-03T08:50:25.000Z</time>
      </trkpt>
      <trkpt lat="49.08822" lon="1.51882">
        <ele>107.23</ele>
        <time>2026-09-03T08:50:42.000Z</time>
      </trkpt>
      <trkpt lat="49.08805" lon="1.51868">
        <ele>107.56</ele>
        <time>2026-09-03T08:50:59.000Z</time>
      </trkpt>
      <trkpt lat="49.08788" lon="1.51861">
        <ele>107.04</ele>
        <time>2026-09-03T08:51:17.000Z</time>
      </trkpt>
      <trkpt lat="49.0877" lon="1.51854">
        <ele>108.5</ele>
        <time>2026-09-03T08:51:32.999Z</time>
      </trkpt>
      <trkpt lat="49.08752" lon="1.51844">
        <ele>109.38</ele>
        <time>2026-09-03T08:51:50.999Z</time>
      </trkpt>
      <trkpt lat="49.08734" lon="1.51835">
        <ele>108.58</ele>
        <time>2026-09-03T08:52:07.999Z</time>
      </trkpt>
      <trkpt lat="49.08717" lon="1.51825">
        <ele>111.22</ele>
        <time>2026-09-03T08:52:24.999Z</time>
      </trkpt>
      <trkpt lat="49.087" lon="1.51815">
        <ele>111.19</ele>
        <time>2026-09-03T08:52:41.999Z</time>
      </trkpt>
      <trkpt lat="49.08683" lon="1.51805">
        <ele>111.95</ele>
        <time>2026-09-03T08:52:58.999Z</time>
      </trkpt>
      <trkpt lat="49.08665" lon="1.51794">
        <ele>112.07</ele>
        <time>2026-09-03T08:53:16.999Z</time>
      </trkpt>
      <trkpt lat="49.08649" lon="1.51783">
        <ele>111.49</ele>
        <time>2026-09-03T08:53:33.999Z</time>
      </trkpt>
      <trkpt lat="49.08646" lon="1.51755">
        <ele>114.14</ele>
        <time>2026-09-03T08:55:35.999Z</time>
      </trkpt>
      <trkpt lat="49.08643" lon="1.51727">
        <ele>110.91</ele>
        <time>2026-09-03T08:55:54.999Z</time>
      </trkpt>
      <trkpt lat="49.0865" lon="1.517">
        <ele>109.07</ele>
        <time>2026-09-03T08:56:10.999Z</time>
      </trkpt>
      <trkpt lat="49.08653" lon="1.51673">
        <ele>111.39</ele>
        <time>2026-09-03T08:56:28.999Z</time>
      </trkpt>
      <trkpt lat="49.08657" lon="1.51646">
        <ele>110.38</ele>
        <time>2026-09-03T08:56:59.999Z</time>
      </trkpt>
      <trkpt lat="49.08667" lon="1.51622">
        <ele>111</ele>
        <time>2026-09-03T08:57:17.999Z</time>
      </trkpt>
      <trkpt lat="49.08682" lon="1.51606">
        <ele>112.47</ele>
        <time>2026-09-03T08:57:34.999Z</time>
      </trkpt>
      <trkpt lat="49.08685" lon="1.51579">
        <ele>110.32</ele>
        <time>2026-09-03T08:57:52.999Z</time>
      </trkpt>
      <trkpt lat="49.08697" lon="1.51559">
        <ele>108.99</ele>
        <time>2026-09-03T08:58:09.999Z</time>
      </trkpt>
      <trkpt lat="49.08696" lon="1.51531">
        <ele>108.8</ele>
        <time>2026-09-03T08:58:27.999Z</time>
      </trkpt>
      <trkpt lat="49.08704" lon="1.51505">
        <ele>111.06</ele>
        <time>2026-09-03T08:58:45.999Z</time>
      </trkpt>
      <trkpt lat="49.08715" lon="1.51482">
        <ele>112.46</ele>
        <time>2026-09-03T08:59:04.999Z</time>
      </trkpt>
      <trkpt lat="49.08715" lon="1.51453">
        <ele>112.27</ele>
        <time>2026-09-03T08:59:23.999Z</time>
      </trkpt>
      <trkpt lat="49.08707" lon="1.51427">
        <ele>111.08</ele>
        <time>2026-09-03T08:59:40.999Z</time>
      </trkpt>
      <trkpt lat="49.0872" lon="1.51407">
        <ele>110.31</ele>
        <time>2026-09-03T09:01:57.999Z</time>
      </trkpt>
      <trkpt lat="49.08723" lon="1.51379">
        <ele>104.33</ele>
        <time>2026-09-03T09:02:30.999Z</time>
      </trkpt>
      <trkpt lat="49.08721" lon="1.51352">
        <ele>98.73</ele>
        <time>2026-09-03T09:03:11.999Z</time>
      </trkpt>
      <trkpt lat="49.08719" lon="1.51324">
        <ele>92.13</ele>
        <time>2026-09-03T09:03:45.999Z</time>
      </trkpt>
      <trkpt lat="49.08716" lon="1.51295">
        <ele>85.18</ele>
        <time>2026-09-03T09:04:31.999Z</time>
      </trkpt>
      <trkpt lat="49.08711" lon="1.51268">
        <ele>80.71</ele>
        <time>2026-09-03T09:05:08.999Z</time>
      </trkpt>
      <trkpt lat="49.08708" lon="1.51241">
        <ele>76.21</ele>
        <time>2026-09-03T09:06:01.999Z</time>
      </trkpt>
      <trkpt lat="49.08705" lon="1.51214">
        <ele>69.93</ele>
        <time>2026-09-03T09:06:36.999Z</time>
      </trkpt>
      <trkpt lat="49.08715" lon="1.5119">
        <ele>63.43</ele>
        <time>2026-09-03T09:08:10.999Z</time>
      </trkpt>
      <trkpt lat="49.08727" lon="1.51169">
        <ele>61.06</ele>
        <time>2026-09-03T09:08:33.999Z</time>
      </trkpt>
      <trkpt lat="49.08736" lon="1.51144">
        <ele>57.38</ele>
        <time>2026-09-03T09:09:03.000Z</time>
      </trkpt>
      <trkpt lat="49.08749" lon="1.51123">
        <ele>54.72</ele>
        <time>2026-09-03T09:09:26.000Z</time>
      </trkpt>
      <trkpt lat="49.08764" lon="1.51106">
        <ele>53.2</ele>
        <time>2026-09-03T09:09:48.000Z</time>
      </trkpt>
      <trkpt lat="49.08782" lon="1.51104">
        <ele>50.34</ele>
        <time>2026-09-03T09:10:09.000Z</time>
      </trkpt>
      <trkpt lat="49.08801" lon="1.51104">
        <ele>46.78</ele>
        <time>2026-09-03T09:10:33.000Z</time>
      </trkpt>
      <trkpt lat="49.08819" lon="1.51107">
        <ele>40.32</ele>
        <time>2026-09-03T09:10:57.000Z</time>
      </trkpt>
      <trkpt lat="49.08831" lon="1.51086">
        <ele>39.64</ele>
        <time>2026-09-03T09:11:25.000Z</time>
      </trkpt>
      <trkpt lat="49.08827" lon="1.51057">
        <ele>50.72</ele>
        <time>2026-09-03T09:12:04.000Z</time>
      </trkpt>
      <trkpt lat="49.08827" lon="1.51028">
        <ele>33.33</ele>
        <time>2026-09-03T09:12:36.000Z</time>
      </trkpt>
      <trkpt lat="49.08825" lon="1.51">
        <ele>32.75</ele>
        <time>2026-09-03T09:12:53.000Z</time>
      </trkpt>
      <trkpt lat="49.08824" lon="1.50972">
        <ele>30.51</ele>
        <time>2026-09-03T09:13:10.000Z</time>
      </trkpt>
      <trkpt lat="49.08806" lon="1.50972">
        <ele>25.36</ele>
        <time>2026-09-03T09:13:35.000Z</time>
      </trkpt>
      <trkpt lat="49.08792" lon="1.50991">
        <ele>22.66</ele>
        <time>2026-09-03T09:13:54.000Z</time>
      </trkpt>
      <trkpt lat="49.08774" lon="1.50998">
        <ele>21.93</ele>
        <time>2026-09-03T09:14:17.000Z</time>
      </trkpt>
      <trkpt lat="49.08758" lon="1.50985">
        <ele>20.88</ele>
        <time>2026-09-03T09:14:35.000Z</time>
      </trkpt>
      <trkpt lat="49.08742" lon="1.50972">
        <ele>19.19</ele>
        <time>2026-09-03T09:14:54.000Z</time>
      </trkpt>
      <trkpt lat="49.08728" lon="1.50991">
        <ele>16.91</ele>
        <time>2026-09-03T09:17:28.000Z</time>
      </trkpt>
      <trkpt lat="49.08716" lon="1.51011">
        <ele>17.96</ele>
        <time>2026-09-03T09:17:46.000Z</time>
      </trkpt>
      <trkpt lat="49.08702" lon="1.5103">
        <ele>17.6</ele>
        <time>2026-09-03T09:18:03.000Z</time>
      </trkpt>
      <trkpt lat="49.08688" lon="1.51049">
        <ele>16.53</ele>
        <time>2026-09-03T09:18:20.000Z</time>
      </trkpt>
      <trkpt lat="49.08673" lon="1.51065">
        <ele>17.74</ele>
        <time>2026-09-03T09:18:37.000Z</time>
      </trkpt>
      <trkpt lat="49.08659" lon="1.51083">
        <ele>17.44</ele>
        <time>2026-09-03T09:18:52.000Z</time>
      </trkpt>
      <trkpt lat="49.08642" lon="1.51097">
        <ele>17.62</ele>
        <time>2026-09-03T09:19:09.000Z</time>
      </trkpt>
      <trkpt lat="49.08631" lon="1.51119">
        <ele>16.96</ele>
        <time>2026-09-03T09:19:25.000Z</time>
      </trkpt>
      <trkpt lat="49.08615" lon="1.51134">
        <ele>17.84</ele>
        <time>2026-09-03T09:19:41.000Z</time>
      </trkpt>
      <trkpt lat="49.08602" lon="1.51154">
        <ele>17.75</ele>
        <time>2026-09-03T09:19:57.000Z</time>
      </trkpt>
      <trkpt lat="49.08587" lon="1.51172">
        <ele>16.96</ele>
        <time>2026-09-03T09:20:13.000Z</time>
      </trkpt>
      <trkpt lat="49.08573" lon="1.51189">
        <ele>16.93</ele>
        <time>2026-09-03T09:20:30.000Z</time>
      </trkpt>
      <trkpt lat="49.08559" lon="1.51208">
        <ele>16.37</ele>
        <time>2026-09-03T09:20:47.000Z</time>
      </trkpt>
      <trkpt lat="49.08545" lon="1.51227">
        <ele>17.37</ele>
        <time>2026-09-03T09:21:03.000Z</time>
      </trkpt>
      <trkpt lat="49.0853" lon="1.51244">
        <ele>16.44</ele>
        <time>2026-09-03T09:21:20.000Z</time>
      </trkpt>
      <trkpt lat="49.08516" lon="1.51261">
        <ele>17.41</ele>
        <time>2026-09-03T09:21:36.000Z</time>
      </trkpt>
      <trkpt lat="49.08502" lon="1.51279">
        <ele>16.67</ele>
        <time>2026-09-03T09:21:53.000Z</time>
      </trkpt>
      <trkpt lat="49.08487" lon="1.51295">
        <ele>18.62</ele>
        <time>2026-09-03T09:22:08.000Z</time>
      </trkpt>
      <trkpt lat="49.08473" lon="1.51313">
        <ele>17.88</ele>
        <time>2026-09-03T09:22:24.000Z</time>
      </trkpt>
      <trkpt lat="49.08458" lon="1.51329">
        <ele>18.54</ele>
        <time>2026-09-03T09:22:39.000Z</time>
      </trkpt>
      <trkpt lat="49.08444" lon="1.51349">
        <ele>16.51</ele>
        <time>2026-09-03T09:22:56.000Z</time>
      </trkpt>
      <trkpt lat="49.0843" lon="1.51367">
        <ele>16.6</ele>
        <time>2026-09-03T09:23:12.000Z</time>
      </trkpt>
      <trkpt lat="49.08416" lon="1.51385">
        <ele>14.96</ele>
        <time>2026-09-03T09:23:28.000Z</time>
      </trkpt>
      <trkpt lat="49.08401" lon="1.51401">
        <ele>16.67</ele>
        <time>2026-09-03T09:23:45.000Z</time>
      </trkpt>
      <trkpt lat="49.08385" lon="1.51416">
        <ele>16.18</ele>
        <time>2026-09-03T09:24:02.000Z</time>
      </trkpt>
      <trkpt lat="49.08371" lon="1.51433">
        <ele>16.8</ele>
        <time>2026-09-03T09:24:47.000Z</time>
      </trkpt>
      <trkpt lat="49.08353" lon="1.51444">
        <ele>17.58</ele>
        <time>2026-09-03T09:25:12.000Z</time>
      </trkpt>
      <trkpt lat="49.08337" lon="1.51457">
        <ele>17.79</ele>
        <time>2026-09-03T09:25:29.000Z</time>
      </trkpt>
      <trkpt lat="49.08321" lon="1.51471">
        <ele>16.9</ele>
        <time>2026-09-03T09:25:44.000Z</time>
      </trkpt>
      <trkpt lat="49.08305" lon="1.51485">
        <ele>17.41</ele>
        <time>2026-09-03T09:26:02.000Z</time>
      </trkpt>
      <trkpt lat="49.08288" lon="1.51497">
        <ele>17.04</ele>
        <time>2026-09-03T09:26:25.000Z</time>
      </trkpt>
      <trkpt lat="49.08271" lon="1.51512">
        <ele>15.9</ele>
        <time>2026-09-03T09:26:41.000Z</time>
      </trkpt>
      <trkpt lat="49.08254" lon="1.51526">
        <ele>15.74</ele>
        <time>2026-09-03T09:26:56.000Z</time>
      </trkpt>
      <trkpt lat="49.08238" lon="1.51537">
        <ele>15.68</ele>
        <time>2026-09-03T09:27:10.999Z</time>
      </trkpt>
      <trkpt lat="49.08221" lon="1.51549">
        <ele>16.37</ele>
        <time>2026-09-03T09:27:25.999Z</time>
      </trkpt>
      <trkpt lat="49.08204" lon="1.51561">
        <ele>16</ele>
        <time>2026-09-03T09:27:40.999Z</time>
      </trkpt>
      <trkpt lat="49.08188" lon="1.51575">
        <ele>15.64</ele>
        <time>2026-09-03T09:27:56.999Z</time>
      </trkpt>
      <trkpt lat="49.08177" lon="1.51597">
        <ele>15.39</ele>
        <time>2026-09-03T09:28:13.999Z</time>
      </trkpt>
      <trkpt lat="49.08172" lon="1.51625">
        <ele>16.34</ele>
        <time>2026-09-03T09:28:30.999Z</time>
      </trkpt>
      <trkpt lat="49.08162" lon="1.51649">
        <ele>17.72</ele>
        <time>2026-09-03T09:28:46.999Z</time>
      </trkpt>
      <trkpt lat="49.08151" lon="1.51671">
        <ele>17.49</ele>
        <time>2026-09-03T09:29:05.999Z</time>
      </trkpt>
      <trkpt lat="49.0814" lon="1.51693">
        <ele>17.95</ele>
        <time>2026-09-03T09:29:22.999Z</time>
      </trkpt>
      <trkpt lat="49.08128" lon="1.51715">
        <ele>20.07</ele>
        <time>2026-09-03T09:29:39.999Z</time>
      </trkpt>
      <trkpt lat="49.08115" lon="1.51736">
        <ele>21.05</ele>
        <time>2026-09-03T09:29:56.999Z</time>
      </trkpt>
      <trkpt lat="49.081" lon="1.51754">
        <ele>19.45</ele>
        <time>2026-09-03T09:30:15.999Z</time>
      </trkpt>
      <trkpt lat="49.08087" lon="1.51774">
        <ele>20.8</ele>
        <time>2026-09-03T09:30:35.999Z</time>
      </trkpt>
      <trkpt lat="49.08074" lon="1.51795">
        <ele>20.85</ele>
        <time>2026-09-03T09:30:53.999Z</time>
      </trkpt>
      <trkpt lat="49.08061" lon="1.51817">
        <ele>22.19</ele>
        <time>2026-09-03T09:31:11.999Z</time>
      </trkpt>
      <trkpt lat="49.08047" lon="1.51835">
        <ele>21.27</ele>
        <time>2026-09-03T09:31:28.999Z</time>
      </trkpt>
      <trkpt lat="49.08035" lon="1.51856">
        <ele>23.81</ele>
        <time>2026-09-03T09:31:52.999Z</time>
      </trkpt>
      <trkpt lat="49.08022" lon="1.51877">
        <ele>24.35</ele>
        <time>2026-09-03T09:32:09.999Z</time>
      </trkpt>
      <trkpt lat="49.08007" lon="1.51893">
        <ele>22.74</ele>
        <time>2026-09-03T09:32:26.999Z</time>
      </trkpt>
      <trkpt lat="49.07996" lon="1.51914">
        <ele>22.07</ele>
        <time>2026-09-03T09:32:40.999Z</time>
      </trkpt>
      <trkpt lat="49.07984" lon="1.51936">
        <ele>23.55</ele>
        <time>2026-09-03T09:32:57.999Z</time>
      </trkpt>
      <trkpt lat="49.07971" lon="1.51956">
        <ele>23.6</ele>
        <time>2026-09-03T09:33:35.999Z</time>
      </trkpt>
      <trkpt lat="49.07954" lon="1.51968">
        <ele>24.61</ele>
        <time>2026-09-03T09:33:51.999Z</time>
      </trkpt>
      <trkpt lat="49.07937" lon="1.51977">
        <ele>23.66</ele>
        <time>2026-09-03T09:34:07.999Z</time>
      </trkpt>
      <trkpt lat="49.07922" lon="1.51993">
        <ele>24.38</ele>
        <time>2026-09-03T09:34:24.999Z</time>
      </trkpt>
      <trkpt lat="49.07908" lon="1.52012">
        <ele>23.04</ele>
        <time>2026-09-03T09:34:40.999Z</time>
      </trkpt>
      <trkpt lat="49.07894" lon="1.5203">
        <ele>23.97</ele>
        <time>2026-09-03T09:34:57.999Z</time>
      </trkpt>
      <trkpt lat="49.0788" lon="1.5205">
        <ele>23.75</ele>
        <time>2026-09-03T09:35:13.999Z</time>
      </trkpt>
      <trkpt lat="49.07868" lon="1.52072">
        <ele>24.95</ele>
        <time>2026-09-03T09:35:30.999Z</time>
      </trkpt>
      <trkpt lat="49.07855" lon="1.52094">
        <ele>24.95</ele>
        <time>2026-09-03T09:35:46.999Z</time>
      </trkpt>
      <trkpt lat="49.07844" lon="1.52116">
        <ele>26.33</ele>
        <time>2026-09-03T09:36:02.999Z</time>
      </trkpt>
      <trkpt lat="49.0783" lon="1.52136">
        <ele>25.21</ele>
        <time>2026-09-03T09:36:19.999Z</time>
      </trkpt>
      <trkpt lat="49.07817" lon="1.52155">
        <ele>27.89</ele>
        <time>2026-09-03T09:36:55.999Z</time>
      </trkpt>
      <trkpt lat="49.07802" lon="1.52172">
        <ele>26.9</ele>
        <time>2026-09-03T09:37:11.999Z</time>
      </trkpt>
      <trkpt lat="49.07792" lon="1.52196">
        <ele>26.42</ele>
        <time>2026-09-03T09:37:27.999Z</time>
      </trkpt>
      <trkpt lat="49.07784" lon="1.52221">
        <ele>26.54</ele>
        <time>2026-09-03T09:37:43.999Z</time>
      </trkpt>
      <trkpt lat="49.07777" lon="1.52247">
        <ele>27.63</ele>
        <time>2026-09-03T09:38:00.999Z</time>
      </trkpt>
      <trkpt lat="49.0777" lon="1.52273">
        <ele>29.09</ele>
        <time>2026-09-03T09:38:14.999Z</time>
      </trkpt>
      <trkpt lat="49.07764" lon="1.523">
        <ele>27.52</ele>
        <time>2026-09-03T09:38:35.999Z</time>
      </trkpt>
      <trkpt lat="49.07778" lon="1.52317">
        <ele>33.7</ele>
        <time>2026-09-03T09:39:31.999Z</time>
      </trkpt>
      <trkpt lat="49.07774" lon="1.52344">
        <ele>35.65</ele>
        <time>2026-09-03T09:40:03.999Z</time>
      </trkpt>
      <trkpt lat="49.07769" lon="1.52371">
        <ele>35.7</ele>
        <time>2026-09-03T09:40:39.999Z</time>
      </trkpt>
      <trkpt lat="49.07757" lon="1.52392">
        <ele>33.34</ele>
        <time>2026-09-03T09:42:06.999Z</time>
      </trkpt>
      <trkpt lat="49.07744" lon="1.52373">
        <ele>27.89</ele>
        <time>2026-09-03T09:44:58.999Z</time>
      </trkpt>
      <trkpt lat="49.07735" lon="1.52398">
        <ele>26.64</ele>
        <time>2026-09-03T09:45:42.999Z</time>
      </trkpt>
      <trkpt lat="49.0773" lon="1.52426">
        <ele>27.63</ele>
        <time>2026-09-03T09:45:59.999Z</time>
      </trkpt>
      <trkpt lat="49.07726" lon="1.52454">
        <ele>27.06</ele>
        <time>2026-09-03T09:46:16.999Z</time>
      </trkpt>
      <trkpt lat="49.07725" lon="1.52481">
        <ele>28.21</ele>
        <time>2026-09-03T09:46:34.999Z</time>
      </trkpt>
      <trkpt lat="49.07722" lon="1.5251">
        <ele>29.01</ele>
        <time>2026-09-03T09:50:17.000Z</time>
      </trkpt>
      <trkpt lat="49.07717" lon="1.52537">
        <ele>25.91</ele>
        <time>2026-09-03T09:50:36.000Z</time>
      </trkpt>
      <trkpt lat="49.0771" lon="1.52564">
        <ele>25.33</ele>
        <time>2026-09-03T09:50:52.000Z</time>
      </trkpt>
      <trkpt lat="49.07706" lon="1.52592">
        <ele>25.66</ele>
        <time>2026-09-03T09:51:08.000Z</time>
      </trkpt>
      <trkpt lat="49.07702" lon="1.52619">
        <ele>24.71</ele>
        <time>2026-09-03T09:51:25.000Z</time>
      </trkpt>
      <trkpt lat="49.07698" lon="1.52647">
        <ele>24.52</ele>
        <time>2026-09-03T09:51:41.000Z</time>
      </trkpt>
      <trkpt lat="49.07695" lon="1.52675">
        <ele>23.74</ele>
        <time>2026-09-03T09:51:59.000Z</time>
      </trkpt>
      <trkpt lat="49.07692" lon="1.52703">
        <ele>24.5</ele>
        <time>2026-09-03T09:52:16.000Z</time>
      </trkpt>
      <trkpt lat="49.07685" lon="1.5273">
        <ele>22.4</ele>
        <time>2026-09-03T09:52:32.000Z</time>
      </trkpt>
      <trkpt lat="49.07682" lon="1.52757">
        <ele>23.35</ele>
        <time>2026-09-03T09:52:48.000Z</time>
      </trkpt>
      <trkpt lat="49.07682" lon="1.52785">
        <ele>27.06</ele>
        <time>2026-09-03T09:53:15.000Z</time>
      </trkpt>
      <trkpt lat="49.07675" lon="1.52811">
        <ele>22.28</ele>
        <time>2026-09-03T11:58:51.000Z</time>
      </trkpt>
      <trkpt lat="49.07671" lon="1.52839">
        <ele>25.89</ele>
        <time>2026-09-03T12:01:44.000Z</time>
      </trkpt>
      <trkpt lat="49.07666" lon="1.52867">
        <ele>26.35</ele>
        <time>2026-09-03T12:02:14.000Z</time>
      </trkpt>
      <trkpt lat="49.07662" lon="1.52894">
        <ele>26.73</ele>
        <time>2026-09-03T12:02:44.000Z</time>
      </trkpt>
      <trkpt lat="49.07657" lon="1.52921">
        <ele>27.33</ele>
        <time>2026-09-03T12:03:38.000Z</time>
      </trkpt>
      <trkpt lat="49.07646" lon="1.52944">
        <ele>25.71</ele>
        <time>2026-09-03T12:04:06.000Z</time>
      </trkpt>
      <trkpt lat="49.07639" lon="1.52969">
        <ele>25.64</ele>
        <time>2026-09-03T12:04:41.000Z</time>
      </trkpt>
      <trkpt lat="49.07631" lon="1.52995">
        <ele>22.63</ele>
        <time>2026-09-03T12:05:14.000Z</time>
      </trkpt>
      <trkpt lat="49.07625" lon="1.53021">
        <ele>21.46</ele>
        <time>2026-09-03T12:05:43.000Z</time>
      </trkpt>
      <trkpt lat="49.07615" lon="1.53044">
        <ele>23.93</ele>
        <time>2026-09-03T12:07:00.000Z</time>
      </trkpt>
      <trkpt lat="49.07597" lon="1.53041">
        <ele>18.46</ele>
        <time>2026-09-03T12:07:27.000Z</time>
      </trkpt>
      <trkpt lat="49.07579" lon="1.53028">
        <ele>19.58</ele>
        <time>2026-09-03T12:07:51.000Z</time>
      </trkpt>
      <trkpt lat="49.07561" lon="1.53024">
        <ele>17</ele>
        <time>2026-09-03T12:08:17.000Z</time>
      </trkpt>
      <trkpt lat="49.07543" lon="1.53019">
        <ele>16.24</ele>
        <time>2026-09-03T12:08:42.000Z</time>
      </trkpt>
      <trkpt lat="49.07525" lon="1.53017">
        <ele>15.67</ele>
        <time>2026-09-03T12:09:07.000Z</time>
      </trkpt>
      <trkpt lat="49.07507" lon="1.53012">
        <ele>15.8</ele>
        <time>2026-09-03T12:09:38.000Z</time>
      </trkpt>
      <trkpt lat="49.07489" lon="1.53009">
        <ele>14.95</ele>
        <time>2026-09-03T12:10:03.000Z</time>
        <extensions>
          <visugpx:TrkExtension xmlns:visugpx="https://www.visugpx.com/editgpx/">
            <visugpx:node>1</visugpx:node>
            </visugpx:TrkExtension>
        </extensions>
      </trkpt>
    </trkseg>
  </trk>
</gpx>